the time You need

Raid dei Colli Ozzanesi

Ozzano dell'Emilia, Bologna   Italy

domenica 29 maggio 2016

Percorsi

LUNGO - 32.0 Km

 

CORTO - 15.0 Km

Servizi

ADSCOSTPunti KS Ranking

Chip

Circuiti

Caveja Bike CupRomagna Bike Cup

Ente

UISP

CLASSIFICA

LUNGO - 32.0 Km

Pos Atleta Sesso Cat PosC Team Tempo Media
Sq. VALLICELLI MIRKO M M2 - TEAM PASSION FAENTINA 01:46:54.02 17,96
Sq. PELLEGRINO PARIDE M M4 - TEAM TORPEDO BIKE 01:46:53.82 17,96
1 PUGLISI DANIELE M ELMT 1 ASD BLACK ROAD 01:26:01.93 22,32
2 MALUSARDI DANIELE M ELMT 2 ASD GREEN DEVILS 01:26:06.44 22,30
3 ZAMA LORENZO M M1 1 TEAM PASSION FAENTINA 01:27:00.34 22,07
4 TEDESCHI DAMIANO M M1 2 TEAM K-ONE ASD 01:27:00.45 22,07
5 GARELLI DAVIDE M M2 1 ASD POLISPORTIVA SANMAURESE NOB 01:28:12.33 21,77
6 BARBERINI ALESSANDRO M ELMT 3 TEAM NOB JOLLYWEAR 01:28:26.19 21,71
7 FABBRI CHRISTIAN M M3 1 TEAM PASSION FAENTINA 01:28:55.20 21,59
8 RENZI NICOLA M M3 2 PROBIKERS 01:29:29.19 21,46
9 FONTANELLI MATTEO M ELMT 4 TEAM PASSION FAENTINA 01:30:28.19 21,22
10 POLVERINO ANDREA M M1 3 KTM FORTI E LIBERI 01:31:03.20 21,09
11 BOVINO MARIO M M4 1 KTM FORTI E LIBERI 01:31:18.44 21,03
12 PIANCASTELLI FABIO M M1 4 ASD IMOLA BIKE 01:31:20.13 21,02
13 PIERANGELI LORENZO M ELMT 5 ASD BICICULT 01:31:21.70 21,02
14 RUFFILLI PAOLO M M2 2 SPACCO ASD 01:32:48.56 20,69
15 RAFFAELLI SAMUELE M M2 3 TEAM MONDOBICI TECNOPLAST 01:32:56.19 20,66
16 FOSCHI CRISTIAN M M3 3 BARACCA LUGO CORSA MTB 01:33:03.20 20,63
17 MANIGRASSO GIOVANNI M M4 2 ASD ONLYOFF DUE RUOTE 01:33:04.93 20,63
18 ASTOLFI OMAR M M3 4 ASD H3O RACE TEAM 01:33:07.94 20,62
19 GIOVANNINI FABIO M M4 3 SAN MARINO RACE TEAM 01:33:09.45 20,61
20 RAGGI FABIO M M2 4 GOOD BIKE AS RONCOFREDDESE 01:33:18.94 20,58
21 LEONI GERMANO M M5 1 TEAM PASSION FAENTINA 01:33:23.93 20,56
22 BUSSI SIMONE M M2 5 VENTURI ADVENTURE TEAM 01:34:13.69 20,38
23 GUIDI MIRCO M M3 5 SAN MARINO RACE TEAM 01:34:15.19 20,37
24 PRETOLANI TIBERIO M M5 2 ASD IMOLA BIKE 01:34:47.93 20,26
25 MACCAGLI ANDREA M ELMT 6 SAN MARINO RACE TEAM 01:35:15.98 20,16
26 GUGLIELMI MATTEO M M3 6 TEAM BIKE COCIF.COM ASD 01:35:18.82 20,15
27 FABBRI CLAUDIO M M1 5 TEAM PASSION FAENTINA 01:35:22.69 20,13
28 GIANOTTI FEDERICO M M4 4 BAMBANA BIKE 01:36:00.44 20,00
29 FIORINI FABIO M M5 3 KTM FORTI E LIBERI 01:36:04.44 19,99
30 CEREDI DANIELE M M2 6 TEAM ESSERE E MTBICIO 01:36:28.68 19,90
31 MENGHETTI PETER M JUN 1 ASD BIKE INNOVATION SQUADRA CORSE 01:36:44.40 19,85
32 SALVATORI STEFANO M M6 1 KTM FORTI E LIBERI 01:37:04.18 19,78
33 BIANCHI LUCA M M2 7 ASD TEAM BIKE VALCONCA 01:37:28.61 19,70
34 MONTI ANDREA M M3 7 ASD TOSCO-ROMAGNOLA 01:37:30.42 19,69
35 BONFINI ROBERTO M M4 5 SAN MARINO RACE TEAM 01:37:33.28 19,68
36 AGNOLETTI PIERPAOLO M M6 2 ASCD VALLE DEL CONCA 01:37:37.33 19,67
37 CAVALLI ALVER M M3 8 ASD LE SALINE NATURA E SPORT 01:37:54.17 19,61
38 REGGIANINI CLAUDIO M M2 8 VERNIABIKE ASD 01:38:20.92 19,53
39 GRILLI LUCA M M2 9 ASDC VALLE DEL CONCA NORDIC WALKING 01:38:25.40 19,51
40 TAMAGNINI VITTORIO M ELMT 7 ASD ACTION BIKE 01:38:37.92 19,47
41 VISCONTI ANDREA M M4 6 FRM FACTORY RACING TEAM ASD 01:38:39.17 19,46
42 RAGGINI ROBERTO M M5 4 SCORPION BIKE MTB 01:38:42.68 19,45
43 CAVICCHI CRISTIAN M M3 9 POL. YOUNG LINE 01:38:58.92 19,40
44 BALDAZZI ANDREA M M3 10 ASD BIKE INNOVATION SQUADRA CORSE 01:39:01.17 19,39
45 NERI TOMMASO M JUN 2 TEAM K-ONE ASD 01:39:26.64 19,31
46 BORTOLANI ANDREA M M5 5 VERNIABIKE ASD 01:39:29.89 19,30
47 ZANETTI GIANNI M M2 10 TEAM ZANETTI ASD 01:40:08.92 19,17
48 DIONISI FELICE M M3 11 ASD ONLYOFF DUE RUOTE 01:40:12.88 19,16
49 BRAVACCINI MATTEO M M1 6 COMERO BIKE 01:40:14.68 19,16
50 PALANCA GIANLUCA M M4 7 SPACCO ASD 01:40:23.83 19,13
51 EUSEBI LORENZO M ELMT 8 ASD TEAM BIKE VALCONCA 01:40:28.42 19,11
52 ANGELICCHIO GIUSEPPE M M3 12 ASD ONLYOFF DUE RUOTE 01:40:29.92 19,11
53 PRUNI PAOLO M M4 8 KTM FORTI E LIBERI 01:40:32.68 19,10
54 MAMBELLI MARINO M M6 3 ASD TEAM COMACO 01:40:40.00 19,07
55 IAMMARINO GIANLUCA M M3 13 TEAM ESSERE E MTBICIO 01:40:40.17 19,07
56 MAURO EMANUELE M ELMT 9 TEAM PASSION FAENTINA 01:40:42.29 19,07
57 GOBBI STEFANO M M1 7 ASCD VALLE DEL CONCA 01:40:46.42 19,05
58 SARTI FILIPPO M M4 9 ASD SAMBI TEAM 01:40:52.02 19,04
59 CATTI IVAN M M2 11 BICI PER TUTTI ASD 01:40:53.18 19,03
60 TOZZI MATTIA M JUN 3 TEAM NOB SELLE ITALIA 01:41:26.17 18,93
61 MONTANARI MAURO M M2 12 TEAM PASSION FAENTINA 01:41:36.65 18,90
62 FERRIOLI DEVIS M M2 13 TEAM PASSION FAENTINA 01:41:38.67 18,89
63 MAGALOTTI DAVIDE M M2 14 SPACCO ASD 01:41:40.91 18,89
64 VERNIA MASSIMO M M5 6 VERNIABIKE ASD 01:41:41.32 18,88
65 MURATORI GIAMPAOLO M M4 10 GRUPPO TNT 01:41:46.98 18,87
66 FANTINI MASSIMILIANO M M4 11 TEAM K-ONE ASD 01:41:52.86 18,85
67 MORRI MIRCO M M4 12 ASD LE SALINE NATURA E SPORT 01:42:05.17 18,81
68 ALTINI ANDREA M M2 15 KTM FORTI E LIBERI 01:42:30.16 18,73
69 SASDELLI MICHELE M M3 14 BAMBANA BIKE 01:43:11.16 18,61
70 PIOGGIA LUCA M M3 15 POL. YOUNG LINE 01:43:16.17 18,59
71 GARDINI GIORDANO M M5 7 ASD ONLYOFF DUE RUOTE 01:43:28.66 18,56
72 FASTUCA VITTORIO M ELMT 10 ACD ITALIA NUOVA 01:43:35.42 18,54
73 ZAFFERANI MICHELE M M2 16 SAN MARINO MTB TEAM 01:44:02.66 18,46
74 LASORELLA VINCENZO M M4 13 ASD ONLYOFF DUE RUOTE 01:44:17.26 18,41
75 BUSSOLI PAOLO M M6 4 ASD ONLYOFF DUE RUOTE 01:44:34.49 18,36
76 PEDROSI CRISTIAN M M3 16 ASD BLACK ROAD 01:44:39.36 18,35
77 BONAVITA ILARIO M M5 8 SPACCO ASD 01:44:42.61 18,34
78 CAVIOLI DANIELE M M1 8 ASD LE SALINE NATURA E SPORT 01:44:59.84 18,29
79 BUGLI SAMUELE M M2 17 SAN MARINO RACE TEAM 01:45:01.08 18,28
80 CICOGNANI FABRIZIO M M1 9 180 BPM 01:45:01.26 18,28
81 QUARANTINI DAVIDE M M4 14 ASD IMOLA BIKE 01:45:02.65 18,28
82 BATTELLI SIMONE M M2 18 ASCD VALLE DEL CONCA 01:45:03.29 18,28
83 BABINI GIOVANNI M M6 5 SC VELOCIRAPTOR 01:45:07.35 18,27
84 TORTOLANI UGO M M4 15 POL. YOUNG LINE 01:45:17.16 18,24
85 SAPIGNI ALESSANDRO M M3 17 SCORPION BIKE MTB 01:45:20.53 18,23
86 FABBRI FABIO M M5 9 180 BPM 01:45:30.65 18,20
87 BECCI MORENO M M7 1 GRUPPO TNT 01:45:40.16 18,17
88 BRIGANTI GIANNI M M5 10 180 BPM 01:46:08.59 18,09
89 ALBERGHI FRANCESCO M M1 10 ASD DOROBIKE TEAM 01:46:10.64 18,08
90 GARAGNANI LOREDANO M M6 6 VERNIABIKE ASD 01:46:15.66 18,07
91 LAMI FLAVIO M M6 7 SCORPION BIKE MTB 01:46:18.66 18,06
92 CASTELLUCCI STEFANO M M4 16 180 BPM 01:46:21.57 18,05
93 GAVANELLI LORENZO M M2 19 POL. YOUNG LINE 01:46:30.09 18,03
94 TASSI GIANLUCA M M4 17 TEAM K-ONE ASD 01:46:49.78 17,97
95 MEDRI FRANCESCO M M5 11 BARACCA LUGO CORSA MTB 01:47:32.96 17,85
96 MAGRINI STEFANO M M6 8 TEAM PASSION FAENTINA 01:47:34.16 17,85
97 TRONCONI NICOLO´ M ELMT 11 INDIVIDUALE 01:47:34.91 17,85
98 RUGGERI DAVIDE M M2 20 TEAM K-ONE ASD 01:48:22.16 17,72
99 MIGANI DENIS M M4 18 ASCD VALLE DEL CONCA 01:48:23.39 17,71
100 COZZOLINO CLAUDIO M M3 18 ASD TEAM COMACO 01:48:26.09 17,71
101 TAMPELLINI MATTEO M M2 21 180 BPM 01:48:29.34 17,70
102 FERRETTO LUCA M M1 11 TEAM K-ONE ASD 01:48:29.90 17,70
103 ZACCARELLI GIUSEPPE M M3 19 TEAM PASSION FAENTINA 01:48:45.90 17,66
104 CHIARADIA TULLIO M M3 20 180 BPM 01:48:47.79 17,65
105 FENATI GIANLUCA M M4 19 BICI CASTEL DEL RIO ASD 01:48:50.41 17,64
106 CANDI DAVIDE M M3 21 TEAM K-ONE ASD 01:48:56.65 17,63
107 DALL´OSSO CARLO M M5 12 POL. YOUNG LINE 01:49:08.07 17,59
108 PRATELLI DAVIDE M M2 22 ASDC VALLE DEL CONCA NORDIC WALKING 01:49:20.65 17,56
109 MONTALTI MIRCO M M3 22 SCORPION BIKE MTB 01:49:27.14 17,54
110 CAVALETTI BRUNO M M3 23 GS SPORTISSIMO TOP LEVEL 01:49:52.16 17,48
111 POLI STEFANO M M6 9 ROMAGNA BIKE GRANDI EVENTI 01:49:53.89 17,47
112 FAROLFI MAURO M M4 20 ASD BIKE INNOVATION SQUADRA CORSE 01:50:19.26 17,40
113 VERNIA FABIO M M4 21 VERNIABIKE ASD 01:50:33.14 17,37
114 PODESCHI ROBERTO M M4 22 SAN MARINO RACE TEAM 01:51:13.89 17,26
115 PERINI DAVID M M4 23 ASD LE SALINE NATURA E SPORT 01:51:14.15 17,26
116 FACCHINI MASSIMO M M2 23 ASD LEONARDI RACING TEAM 01:51:24.65 17,24
117 GAVIANI FILIPPO M M1 12 BAD SKULL ASD 01:51:50.41 17,17
118 CORSELLINI DAVIDE M M3 24 MTB LA RUPE 01:51:54.37 17,16
119 ZANCHINI FABIO M M4 24 TEAM PASSION FAENTINA 01:51:55.63 17,16
120 ALTAMURA PAOLO M M5 13 BAMBANA BIKE 01:52:05.73 17,13
121 PELLEGRINO PIERPAOLO M M2 24 ASDC VALLE DEL CONCA NORDIC WALKING 01:52:28.39 17,07
122 RIGHETTI PIETRO M M6 10 BAMBANA BIKE 01:52:47.64 17,02
123 ARGINI FABRIZIO M M5 14 FRM FACTORY RACING TEAM ASD 01:52:59.87 16,99
124 MESSINA GIUSEPPE M M6 11 BAMBANA BIKE 01:53:01.65 16,99
125 GUERRINI EMANUELE M M2 25 TEAM ZANETTI ASD 01:53:25.02 16,93
126 BELLAGAMBA MATTIA M M2 26 LEPRI DI ROMAGNA 01:53:33.15 16,91
127 LIVERANI ALESSANDRO M M4 25 TEAM PASSION FAENTINA 01:53:42.06 16,89
128 VISANI MIRIA F MW1 1 ASD OSTERIA 01:53:45.64 16,88
129 MUCCIOLI MIRKO M M2 27 SAN MARINO MTB TEAM 01:54:10.63 16,82
130 PIOLANTI PIER DOMENICO M M4 26 180 BPM 01:54:10.87 16,82
131 MINGHINI LUCA M M2 28 BAMBANA BIKE 01:55:09.65 16,67
132 GALASSI TIZIANO M M5 15 VERNIABIKE ASD 01:55:12.63 16,67
133 NATALI ADRIANO M M5 16 ROMAGNA BIKE GRANDI EVENTI 01:55:12.88 16,67
134 NERI FABIO M M5 17 MARRADI BIKE 01:55:14.13 16,66
135 BURZACCA ANDREA M M6 12 GS TORPADO SURFING SHOP SPORT PROMOTION 01:55:18.12 16,65
136 FABIANI FABIO M M4 27 SPACCO ASD 01:55:25.14 16,64
137 BISSIONI LORENZO M M7 2 TEAM TORPEDO BIKE 01:55:28.54 16,63
138 SANTI RONNY M M2 29 ASSOCIAZIONE PRO LOCO DI MONZUNO 01:55:40.88 16,60
139 FULIGNI ANDREA M M4 28 ASD ONLYOFF DUE RUOTE 01:55:40.88 16,60
140 MARANI RICCARDO M M2 30 TEAM PASSION FAENTINA 01:55:54.64 16,57
141 MAZZINI MARCO M M4 29 BAMBANA BIKE 01:55:58.13 16,56
142 SAMORI´ ENRICO M ELMT 12 TEAM PASSION FAENTINA 01:56:14.36 16,52
143 BONAIUTI FABIO M M3 25 MTB LA RUPE 01:56:19.37 16,51
144 PARA MASSIMO M M5 18 COMERO BIKE 01:56:22.38 16,50
145 RICCI LUCA M M2 31 MTB LA RUPE 01:56:26.12 16,49
146 VALBONESI EMANUELE M M2 32 180 BPM 01:56:32.61 16,48
147 GRANDI SAMUELE M M1 13 BICI CASTEL DEL RIO ASD 01:56:32.88 16,48
148 CASTELLARI VALERIO M M5 19 ASD LEONARDI RACING TEAM 01:57:05.06 16,40
149 MACCAGLI GIULIANO M M5 20 SAN MARINO RACE TEAM 01:57:17.84 16,37
150 GIACON STEFANO M M5 21 BAMBANA BIKE 01:57:59.36 16,27
151 RUGGIERO BRUNO M M6 13 TEAM K-ONE ASD 01:58:09.36 16,25
152 MONDUZZI MORENO M M5 22 ASD SACMI 01:58:33.14 16,20
153 PIROTTI VITTORIO M M1 14 TEAM PASSION FAENTINA 01:58:34.87 16,19
154 BARTOLINI VALERIA F MW2 1 TEAM TORPEDO BIKE 01:58:36.72 16,19
155 MENGHETTI FABIO M M4 30 ASD BIKE INNOVATION SQUADRA CORSE 01:58:39.14 16,18
156 AMADASI ENRICO M M7 3 BAMBANA BIKE 01:58:40.78 16,18
157 PONZO FEDERICO M ELMT 13 VERNIABIKE ASD 01:58:59.24 16,14
158 BANDINI FRANCESCO M M2 33 AKS SPORT GROUP 01:59:03.88 16,13
159 CESARI ERNESTINO M M7 4 ASD GREEN DEVILS 01:59:08.64 16,12
160 MACCHEROZZI MARTA F MW2 2 GRUPPO TNT 01:59:32.14 16,06
161 FRANCIA GREGORIO M ELMT 14 ASD GREEN DEVILS 01:59:33.38 16,06
162 BERTUSI ALESSANDRO M M1 15 ASSOCIAZIONE PRO LOCO DI MONZUNO 02:02:05.13 15,73
163 DI MATTEO CRISTIAN M M3 26 ASD CESENA BIKE 02:02:24.06 15,69
164 MAGLIO SANDRO M M4 31 ASD LEONARDI RACING TEAM 02:02:41.10 15,65
165 LEONI DANIELE M M5 23 OSTERIA BIKE ASD 02:02:41.85 15,65
166 SCHIETROMA ALESSIO M M1 16 S.C.CERETOLESE 1969 02:02:52.86 15,63
167 GRANDI DANIELE M M4 32 VERNIABIKE ASD 02:02:52.86 15,63
168 GRILLINI CRISTIAN M ELMT 15 ASD OSTERIA 02:03:09.85 15,59
169 COLOMBO ROBERTO M M5 24 BARACCA LUGO CORSA MTB 02:03:22.38 15,56
170 FRANCIA FRANCESCO M M2 34 ASD GREEN DEVILS 02:03:23.08 15,56
171 FABBRI MAURO M M4 33 TEAM BIKE COCIF.COM ASD 02:03:51.08 15,50
172 MANTOVANI LUCA M M5 25 BAMBANA BIKE 02:03:51.38 15,50
173 CROCETTI ENRICO M M5 26 TEAM K-ONE ASD 02:03:51.67 15,50
174 CAVINA ORIANO M M7 5 TEAM K-ONE ASD 02:03:55.53 15,49
175 MAINARDI ROBERTO M M6 14 ASD LE SALINE NATURA E SPORT 02:03:59.58 15,49
176 MONDUZZI GIOVANNI M M6 15 ASD DOROBIKE TEAM 02:04:21.49 15,44
177 SABATTINI MARCO M M4 34 ASD GS VADO CICLOTURISTICO 02:04:26.85 15,43
178 CORADUCCI ALBERTO M M6 16 TEAM K-ONE ASD 02:04:56.60 15,37
179 ZACCARIA DAVIDE M M2 35 VERNIABIKE ASD 02:05:15.63 15,33
180 MARTINI STEFANO M M2 36 MEDICINA ASCD 02:05:19.08 15,32
181 EUSEBI MAURO M M6 17 ASD TEAM BIKE VALCONCA 02:05:38.55 15,28
182 DI MOTTA MICHAEL M ELMT 16 TEAM K-ONE ASD 02:05:53.35 15,25
183 RIMONDI ROBERTO M M5 27 MTB LA RUPE 02:06:01.47 15,24
184 PACASSONI LUCA M M4 35 ASD LE SALINE NATURA E SPORT 02:06:08.56 15,22
185 GUALANDI STEFANO M M5 28 TEAM K-ONE ASD 02:06:10.87 15,22
186 VERARDI FEDERICO MARIA M ELMT 17 TEAM K-ONE ASD 02:06:17.88 15,20
187 VANNI ANGELO M M5 29 SCORPION BIKE MTB 02:06:22.12 15,19
188 RAMBELLI ANDREA M M4 36 UISP BOLOGNA 02:06:48.87 15,14
189 TAROZZI ROBERTO M M4 37 TEAM PASSION FAENTINA 02:08:22.37 14,96
190 MACINA PIER MARINO M M5 30 SAN MARINO RACE TEAM 02:08:22.82 14,96
191 BERARDUCCI DANIELE M M5 31 ASD LE SALINE NATURA E SPORT 02:08:30.62 14,94
192 FERRI MAURO M M7 6 BAMBANA BIKE 02:08:33.77 14,94
193 CHELLI DENIS M M1 17 BAMBANA BIKE 02:08:44.52 14,91
194 CIVOLANI ALESSANDRO M M1 18 BAMBANA BIKE 02:08:45.58 14,91
195 DOS SANTOS FABIO M M1 19 ASD TEAM COMACO 02:09:37.26 14,81
196 CHIOSSONE CRISTIAN M M1 20 TEAM K-ONE ASD 02:09:47.81 14,79
197 SANTAGATI CARMELO M M3 27 BAMBANA BIKE 02:09:56.12 14,78
198 PERSIANI MARCO M M3 28 BAMBANA BIKE 02:09:57.34 14,77
199 CAVULLA ANNARITA F MW2 3 ASD IMOLA BIKE 02:10:10.83 14,75
200 TACCONI GILBERTO M M4 38 TEAM K-ONE ASD 02:10:15.82 14,74
201 ARLOTTI MAURIZIO M M5 32 TEAM TORPEDO BIKE 02:10:16.81 14,74
202 CONFICONI SAMUELE M M3 29 KTM FORTI E LIBERI 02:11:02.66 14,65
203 BARTOLONI GIANNI M M5 33 SAN MARINO MTB TEAM 02:11:37.32 14,59
204 ACCIAI MAURIZIO M M6 18 GRUPPO TNT 02:13:31.70 14,38
205 MORDENTI FERNANDO M M6 19 ASD TEAM COMACO 02:13:35.96 14,37
206 VIGNOLI GIULIANO M M6 20 ASD OSTERIA 02:13:43.06 14,36
207 CECCOLI TONINO M M6 21 SAN MARINO RACE TEAM 02:14:05.11 14,32
208 CASOLARI ROBERTO M M1 21 ASD TEAM STRABICI 02:14:21.35 14,29
209 MERLI GIORGIO M ELMT 18 FBS-ITALIA NUOVA 02:15:26.69 14,18
210 FILIPPUCCI GUSTAVO M M5 34 BAMBANA BIKE 02:15:28.85 14,17
211 RANDI SIMONE M M3 30 TEAM K-ONE ASD 02:15:29.10 14,17
212 TERRANOVA MASSIMO M M4 39 ASD OSTERIA 02:15:30.07 14,17
213 DE SIMONE ALESSANDRO M M2 37 GOOD BIKE AS RONCOFREDDESE 02:15:40.48 14,15
214 CHILLO TANIA F MW2 4 ASD ONLYOFF DUE RUOTE 02:16:53.08 14,03
215 MATTEI GIANLUCA M M4 40 TEAM K-ONE ASD 02:17:16.20 13,99
216 ACCARDI ALESSANDRO M M2 38 ASD LEONARDI RACING TEAM 02:17:50.67 13,93
217 BERTOCCHI MASSIMO M M4 41 TEAM K-ONE ASD 02:18:35.29 13,85
218 TOSI WIDMER M M7 7 SPACCO ASD 02:18:36.14 13,85
219 MAVILLA PAOLO M M6 22 TEAM PASSION FAENTINA 02:18:51.61 13,83
220 RAVAIOLI ROBERTO M M4 42 180 BPM 02:20:07.77 13,70
221 BADIALE MASSIMO M M4 43 TEAM BORGHI RACING 02:20:07.99 13,70
222 SANTAGATA ANDREA M M4 44 VERNIABIKE ASD 02:21:06.17 13,61
223 TERZIARI ALBERTO M M5 35 POL. YOUNG LINE 02:21:47.55 13,54
224 VENTURI LUCA M M2 39 BAMBANA BIKE 02:22:21.29 13,49
225 TRENTI MATTIA M ELMT 19 DNA BIKE 02:22:24.45 13,48
226 SELVA FEDERICO M M2 40 SAN MARINO MTB TEAM 02:22:38.84 13,46
227 GRAZIA LUCA M M1 22 BAMBANA BIKE 02:23:34.42 13,37
228 UBERTI LEONARDO M ELMT 20 ASD BIKE INNOVATION SQUADRA CORSE 02:23:51.46 13,35
229 GOLFERA FABRIZIO M M6 23 TEAM PASSION FAENTINA 02:24:52.59 13,25
230 TEDESCHI ALBERTO M M2 41 BAMBANA BIKE 02:26:59.59 13,06
231 ARGIOLAS ALBERTO M M6 24 BAMBANA BIKE 02:28:38.59 12,92
232 TOSCHI BENEDETTA F MW1 2 POL. YOUNG LINE 02:28:47.08 12,90
233 SANTOLI GIORGIO M M5 36 ASD CLUB CICLI MALINI 02:33:42.82 12,49
234 GIAINIS GIUSEPPE M M1 23 SPEED BIKE 02:34:51.82 12,40
235 PELLEGRINI MARCO M M6 25 BAMBANA BIKE 02:35:21.99 12,36
236 CLAPCI EDOARDO M M3 31 BAMBANA BIKE 02:36:13.92 12,29
237 MIGANI MANUEL M M2 42 ASD H3O RACE TEAM 02:38:28.57 12,12
238 AMADUCCI ROBERTO M M6 26 180 BPM 02:38:53.56 12,08
239 BIANCHI ROBERTO M M4 45 BAMBANA BIKE 02:38:58.99 12,08
240 SARDEGNA THOMAS M ELMT 21 ASD PINEWOOD 02:41:54.32 11,86
241 BERNAGOZZI MARCO M M4 46 BAMBANA BIKE 02:42:18.75 11,83
242 BIGNAMI ENEA M M2 43 TEAM FERRARA BIKE 02:42:35.98 11,81
243 MATTEI DENIS M M3 32 SAN MARINO MTB TEAM 02:45:21.72 11,61
244 PAGANELLI KATIUSCIA F MW2 5 TEAM BIKE COCIF.COM ASD 02:53:50.90 11,05
245 CORTINI DONATELLA F MW2 6 TEAM PASSION FAENTINA 02:54:18.45 11,02
246 BATTISTINI FABIO M M7 8 SPECIAL BIKE TEAM 02:59:18.64 10,71
247 GIORGI LAILA F MW2 7 BAMBANA BIKE 03:00:54.76 10,61
248 CHIOCCIOLINI DANIELA F MW2 8 180 BPM 03:00:55.00 10,61
DNF AGNOLETTI MARIO M M3 - UISP RAVENNA - -
DNF ALPI DEVIS M M2 - MARRADI BIKE - -
DNF BASSETTI MASSIMO M M6 - 180 BPM - -
DNF BELLAGAMBA MICHELE M M1 - LEPRI DI ROMAGNA - -
DNF BEST TOM RICHARD M M5 - ASD ONLYOFF DUE RUOTE - -
DNF BETTI GIANLUCA M M2 - TEAM K-ONE ASD - -
DNF CAMPANINI GIANNI M M6 - PEDALE CESENATE CICLI NERI - -
DNF CAPECE MATTIA M M1 - KTM FORTI E LIBERI - -
DNF CARATI STEFANO M M4 - TEAM K-ONE ASD - -
DNF GAGLIANO CLARA F MW2 - BAMBANA BIKE - -
DNF GAMBERONI ANDREA M ELMT - TEAM K-ONE ASD - -
DNF GIUSVA LUDOVICO M M4 - TEAM K-ONE ASD - -
DNF GUGLIELMI THOMAS M M2 - SPACCO ASD - -
DNF MANFREDI GRAZIANO M M5 - CICLI NERI TEAM - -
DNF MANFREDI SIMONE M M3 - CICLI NERI TEAM - -
DNF MINIELLO LEO M M2 - TEAM BIKE COCIF.COM ASD - -
DNF MORIGI MATTEO M M1 - TEAM TORPEDO BIKE - -
DNF MUCCINI FEDERICO M M4 - ASD LE SALINE NATURA E SPORT - -
DNF PARASSIANI RICCARDO M M1 - LEPRI DI ROMAGNA - -
DNF PEDRONI ALESSANDRO M M7 - ADSCOST - -
DNF PETTAZZONI DAVIDE M M5 - BAMBANA BIKE - -
DNF PIERANTONI GIOVANNI M M5 - ASD SACMI - -
DNF RONCON ROMANO M M2 - INDIVIDUALE - -
DNF SANTI DANILO M M3 - TEAM BIKE 2000 ASD - -
DNF STAVOLA LUCA M M1 - ASD POLISPORTIVA SANMAURESE NOB - -

CORTO - 15.0 Km

Pos Atleta Sesso Cat PosC Team Tempo Media
1 TACCONI SIMONE M ALL 1 TEAM K-ONE ASD 00:50:15.40 17,91
2 TOZZI ALEX M ESO 1 ASCD VALLE DEL CONCA 00:58:04.08 15,50
3 RANZO BABILI ELIA M ESO 2 MTB ADVENTURE BOLOGNA TEAM 01:04:14.94 14,01
4 BALESTRI SAMUELE M ALL 2 MTB ADVENTURE BOLOGNA TEAM 01:07:29.08 13,34